Time;durP1;ratioP1;P1;durP2;ratioP2;P2;SDS_P1;SDS_P2;PMS_P1;PMS_P2;Temp;Humidity;BMP_temperature;BMP_pressure;BME280_temperature;BME280_humidity;BME280_pressure;Samples;Min_cycle;Max_cycle;Signal;HPM_P1;HPM_P2
2021/09/18 00:00:19;;;;;;;2.20;1.00;;;;;;;13.76;76.65;100851.78;5060237;28;20289;-82
2021/09/18 00:02:45;;;;;;;1.90;1.07;;;;;;;13.74;76.77;100846.53;5060385;28;20232;-83
2021/09/18 00:05:12;;;;;;;1.20;1.03;;;;;;;13.73;76.84;100847.50;5059338;28;20241;-82
2021/09/18 00:07:38;;;;;;;3.70;1.37;;;;;;;13.71;76.81;100852.13;5058503;28;20269;-82
2021/09/18 00:10:06;;;;;;;1.60;1.20;;;;;;;13.70;77.00;100850.41;5043817;28;20297;-82
2021/09/18 00:12:33;;;;;;;1.37;1.07;;;;;;;13.70;76.81;100855.75;5052630;28;20231;-82
2021/09/18 00:15:01;;;;;;;2.27;1.40;;;;;;;13.69;76.76;100854.03;5054304;28;20206;-82
2021/09/18 00:17:28;;;;;;;2.70;1.40;;;;;;;13.69;76.83;100847.84;5054776;28;20205;-82
2021/09/18 00:19:55;;;;;;;2.23;1.30;;;;;;;13.68;77.25;100857.69;5053754;28;20292;-82
2021/09/18 00:22:21;;;;;;;2.17;1.00;;;;;;;13.69;77.06;100858.53;5054617;28;20304;-82
2021/09/18 00:24:48;;;;;;;2.77;1.50;;;;;;;13.67;77.04;100861.31;5054466;28;20580;-82
2021/09/18 00:27:15;;;;;;;1.83;1.00;;;;;;;13.67;77.08;100857.78;5054020;28;20821;-81
2021/09/18 00:29:41;;;;;;;2.37;1.03;;;;;;;13.65;77.44;100860.56;5054916;28;20211;-82
2021/09/18 00:32:09;;;;;;;2.23;1.00;;;;;;;13.64;77.12;100853.50;5054960;28;20325;-83
2021/09/18 00:34:36;;;;;;;2.97;1.50;;;;;;;13.63;77.07;100859.84;5060251;28;20261;-82
2021/09/18 00:37:03;;;;;;;3.37;1.50;;;;;;;13.61;76.96;100855.59;5055898;28;20233;-83
2021/09/18 00:39:29;;;;;;;1.73;1.10;;;;;;;13.59;76.90;100857.50;5046694;28;20237;-82
2021/09/18 00:41:56;;;;;;;1.83;0.87;;;;;;;13.57;77.14;100854.09;5054082;28;20296;-81
2021/09/18 00:44:22;;;;;;;1.97;1.00;;;;;;;13.55;76.86;100857.72;5059113;28;20221;-82
2021/09/18 00:46:51;;;;;;;1.80;1.10;;;;;;;13.55;76.89;100859.53;5058860;28;20240;-81
2021/09/18 00:49:20;;;;;;;2.90;1.20;;;;;;;13.51;77.07;100856.22;5057312;28;20205;-81
2021/09/18 00:51:48;;;;;;;1.20;0.73;;;;;;;13.49;76.75;100854.63;5056772;28;20659;-82
2021/09/18 00:54:15;;;;;;;4.03;1.07;;;;;;;13.47;76.54;100860.09;5060218;28;20212;-82
2021/09/18 00:56:43;;;;;;;1.93;0.93;;;;;;;13.45;76.84;100854.00;5057333;28;20214;-82
2021/09/18 00:59:10;;;;;;;2.13;1.00;;;;;;;13.43;76.75;100852.41;5056374;28;20205;-81
2021/09/18 01:01:37;;;;;;;2.07;1.20;;;;;;;13.40;76.55;100863.34;5057966;28;20249;-82
2021/09/18 01:04:04;;;;;;;1.20;1.10;;;;;;;13.36;76.72;100857.34;5056525;28;20747;-83
2021/09/18 01:06:32;;;;;;;2.77;1.10;;;;;;;13.34;77.12;100853.06;5057483;28;20261;-83
2021/09/18 01:09:01;;;;;;;2.80;1.87;;;;;;;13.32;76.87;100855.84;5058373;28;20284;-83
2021/09/18 01:11:29;;;;;;;3.17;1.67;;;;;;;13.28;76.86;100854.34;5057250;28;20288;-82
2021/09/18 01:13:56;;;;;;;3.23;1.20;;;;;;;13.24;76.75;100860.03;5055696;28;20259;-82
2021/09/18 01:16:23;;;;;;;2.10;1.27;;;;;;;13.19;76.62;100849.66;5055151;28;20607;-81
2021/09/18 01:18:50;;;;;;;3.70;1.40;;;;;;;13.14;76.92;100860.66;5056290;28;20223;-81
2021/09/18 01:21:17;;;;;;;3.03;1.20;;;;;;;13.10;76.89;100861.81;5056297;28;20573;-81
2021/09/18 01:23:45;;;;;;;1.97;1.07;;;;;;;13.05;76.85;100858.63;5057308;28;20240;-82
2021/09/18 01:26:12;;;;;;;3.23;1.00;;;;;;;13.01;76.89;100850.94;5057287;28;20273;-82
2021/09/18 01:28:40;;;;;;;1.67;1.00;;;;;;;12.97;77.46;100858.31;5057576;28;20289;-82
2021/09/18 01:31:07;;;;;;;2.97;1.30;;;;;;;12.95;77.13;100857.56;5053021;28;20648;-82
2021/09/18 01:33:34;;;;;;;3.80;1.10;;;;;;;12.92;77.31;100856.91;5050844;28;20657;-82
2021/09/18 01:36:01;;;;;;;1.53;1.10;;;;;;;12.89;77.49;100866.03;5057594;28;20767;-82
2021/09/18 01:38:27;;;;;;;1.30;0.90;;;;;;;12.86;77.48;100864.41;5059027;28;20294;-81
2021/09/18 01:40:55;;;;;;;4.83;1.23;;;;;;;12.83;77.48;100859.28;5058872;28;20205;-84
2021/09/18 01:43:23;;;;;;;1.37;1.10;;;;;;;12.79;77.81;100857.75;5059037;28;20235;-83
2021/09/18 01:45:49;;;;;;;2.43;1.10;;;;;;;12.75;77.65;100855.41;5052183;28;20212;-83
2021/09/18 01:48:17;;;;;;;1.53;1.03;;;;;;;12.70;77.39;100854.88;5056488;28;20217;-84
2021/09/18 01:50:47;;;;;;;1.83;0.93;;;;;;;12.66;77.62;100853.38;5045143;28;20216;-82
2021/09/18 01:53:14;;;;;;;2.37;1.17;;;;;;;12.60;77.40;100856.47;5045994;28;20224;-82
2021/09/18 01:55:43;;;;;;;1.50;1.27;;;;;;;12.51;77.26;100860.63;5057593;28;20576;-82
2021/09/18 01:58:11;;;;;;;1.77;1.13;;;;;;;12.41;77.04;100857.72;5057525;28;20288;-84
2021/09/18 02:00:40;;;;;;;2.07;1.20;;;;;;;12.30;76.99;100856.75;5057089;28;20257;-84
2021/09/18 02:03:06;;;;;;;1.23;1.13;;;;;;;12.23;77.56;100861.63;5056393;28;20222;-83
2021/09/18 02:05:34;;;;;;;1.40;1.20;;;;;;;12.19;77.23;100862.78;5056831;28;20238;-83
2021/09/18 02:08:01;;;;;;;2.27;1.27;;;;;;;12.13;77.48;100857.88;5055502;28;20747;-82
2021/09/18 02:10:29;;;;;;;1.87;1.23;;;;;;;12.08;77.58;100860.84;5056524;28;20204;-82
2021/09/18 02:12:56;;;;;;;1.67;1.17;;;;;;;12.02;77.66;100866.56;5056923;28;20235;-83
2021/09/18 02:15:25;;;;;;;1.67;1.00;;;;;;;11.99;77.67;100863.28;5058958;28;20297;-82
2021/09/18 02:17:53;;;;;;;1.90;0.90;;;;;;;11.94;77.80;100857.38;5060149;28;20208;-82
2021/09/18 02:20:24;;;;;;;1.47;1.27;;;;;;;11.89;77.69;100856.81;5059530;28;20241;-82
2021/09/18 02:22:50;;;;;;;2.20;1.07;;;;;;;11.86;78.12;100860.53;5059397;28;20244;-81
2021/09/18 02:25:18;;;;;;;2.10;1.00;;;;;;;11.85;78.25;100861.47;5059512;28;20294;-82
2021/09/18 02:27:45;;;;;;;1.17;0.80;;;;;;;11.81;78.31;100852.84;5059563;28;20193;-81
2021/09/18 02:30:17;;;;;;;0.80;0.80;;;;;;;11.80;78.63;100844.94;5059615;28;20205;-82
2021/09/18 02:32:46;;;;;;;1.37;0.87;;;;;;;11.78;78.83;100849.50;5055987;28;20239;-81
2021/09/18 02:35:16;;;;;;;1.60;0.80;;;;;;;11.76;79.00;100854.09;5040891;28;20199;-81
2021/09/18 02:37:43;;;;;;;4.80;1.30;;;;;;;11.74;79.02;100858.63;5058948;28;20209;-82
2021/09/18 02:40:12;;;;;;;3.97;1.30;;;;;;;11.72;79.37;100858.72;5058842;28;20214;-81
2021/09/18 02:42:41;;;;;;;2.63;1.23;;;;;;;11.72;79.32;100861.41;5057797;28;20218;-82
2021/09/18 02:45:08;;;;;;;3.00;1.00;;;;;;;11.69;79.49;100852.72;5058572;28;20298;-81
2021/09/18 02:47:35;;;;;;;2.40;1.00;;;;;;;11.67;79.59;100852.81;5058741;28;20298;-81
2021/09/18 02:50:05;;;;;;;1.40;0.83;;;;;;;11.63;79.21;100859.34;5059036;28;20235;-81
2021/09/18 02:52:32;;;;;;;3.17;0.83;;;;;;;11.61;79.42;100855.03;5058272;28;20288;-81
2021/09/18 02:54:58;;;;;;;1.87;0.97;;;;;;;11.59;80.01;100855.16;5058167;28;20303;-83
2021/09/18 02:57:25;;;;;;;3.03;1.03;;;;;;;11.59;80.10;100855.16;5055647;28;20236;-83
2021/09/18 02:59:51;;;;;;;1.53;1.10;;;;;;;11.58;80.14;100853.44;5055931;28;20292;-82
2021/09/18 03:02:18;;;;;;;2.23;1.00;;;;;;;11.57;80.23;100854.38;5056106;28;20577;-82
2021/09/18 03:04:45;;;;;;;2.40;1.00;;;;;;;11.58;80.35;100860.56;5055935;28;20206;-82
2021/09/18 03:07:13;;;;;;;2.50;1.50;;;;;;;11.56;80.53;100852.66;5055994;28;20210;-82
2021/09/18 03:09:39;;;;;;;2.77;0.97;;;;;;;11.58;80.74;100855.25;5056061;28;20298;-82
2021/09/18 03:12:06;;;;;;;2.43;1.13;;;;;;;11.57;81.08;100858.88;5055974;28;20229;-82
2021/09/18 03:14:33;;;;;;;2.27;1.00;;;;;;;11.57;81.32;100845.53;5056783;28;20632;-83
2021/09/18 03:16:59;;;;;;;1.77;1.20;;;;;;;11.57;81.45;100849.06;5056513;28;20250;-83
2021/09/18 03:19:26;;;;;;;2.57;1.20;;;;;;;11.58;81.25;100849.91;5056237;28;20212;-83
2021/09/18 03:21:53;;;;;;;4.47;1.30;;;;;;;11.57;81.38;100843.72;5056856;28;20933;-83
2021/09/18 03:24:20;;;;;;;1.57;0.90;;;;;;;11.57;81.83;100846.38;5056404;28;20299;-83
2021/09/18 03:26:47;;;;;;;1.90;1.17;;;;;;;11.59;81.75;100851.63;5056737;28;20300;-83
2021/09/18 03:29:14;;;;;;;2.30;1.33;;;;;;;11.57;81.75;100843.72;5055861;28;20245;-83
2021/09/18 03:31:42;;;;;;;1.43;0.97;;;;;;;11.57;81.71;100843.72;5056295;28;20313;-83
2021/09/18 03:34:08;;;;;;;2.40;1.07;;;;;;;11.57;82.07;100843.72;5056615;28;20654;-83
2021/09/18 03:36:35;;;;;;;3.13;0.77;;;;;;;11.56;82.01;100846.47;5055430;28;20301;-83
2021/09/18 03:39:02;;;;;;;1.27;1.00;;;;;;;11.56;82.03;100846.47;5054141;28;20234;-83
2021/09/18 03:41:33;;;;;;;3.53;0.90;;;;;;;11.54;82.11;100843.91;5054332;28;20635;-83
2021/09/18 03:44:00;;;;;;;3.10;0.80;;;;;;;11.54;82.43;100841.25;5054090;28;20206;-83
2021/09/18 03:46:27;;;;;;;1.53;0.93;;;;;;;11.53;82.36;100842.19;5053256;28;20212;-84
2021/09/18 03:48:53;;;;;;;1.77;1.00;;;;;;;11.53;82.54;100847.53;5053397;28;20318;-84
2021/09/18 03:51:20;;;;;;;4.43;1.40;;;;;;;11.52;82.64;100845.81;5053864;28;20284;-84
2021/09/18 03:54:29;;;;;;;;;;;;;;;;;;;;;
2021/09/18 03:56:57;;;;;;;2.30;1.00;;;;;;;11.51;82.47;100854.75;5019261;28;20206;-82
2021/09/18 03:59:24;;;;;;;3.50;1.10;;;;;;;11.51;82.78;100864.56;5053246;28;20394;-83
2021/09/18 04:01:50;;;;;;;1.53;1.20;;;;;;;11.48;82.75;100855.81;5053559;28;20314;-83
2021/09/18 04:04:17;;;;;;;4.37;1.43;;;;;;;11.49;83.19;100864.66;5050431;28;20219;-82
2021/09/18 04:06:44;;;;;;;1.27;1.00;;;;;;;11.48;82.94;100863.81;5043696;28;20289;-82
2021/09/18 04:09:10;;;;;;;3.43;1.60;;;;;;;11.48;83.00;100866.47;5053268;28;20284;-83
2021/09/18 04:11:37;;;;;;;2.63;1.33;;;;;;;11.46;83.17;100863.06;5053663;28;20221;-82
2021/09/18 04:14:05;;;;;;;4.97;1.10;;;;;;;11.48;83.06;100860.28;5053062;28;20225;-83
2021/09/18 04:16:32;;;;;;;3.70;1.20;;;;;;;11.47;83.25;100861.25;5053913;28;20789;-83
2021/09/18 04:18:58;;;;;;;2.63;1.00;;;;;;;11.46;83.05;100863.06;5052706;28;20202;-82
2021/09/18 04:21:25;;;;;;;2.63;1.20;;;;;;;11.46;83.35;100862.22;5052581;28;20299;-83
2021/09/18 04:23:52;;;;;;;6.20;1.47;;;;;;;11.47;83.23;100863.91;5053257;28;20209;-83
2021/09/18 04:26:19;;;;;;;2.73;1.30;;;;;;;11.48;83.22;100865.63;5053932;28;20204;-82
2021/09/18 04:28:45;;;;;;;2.23;1.10;;;;;;;11.47;83.35;100871.91;5053594;28;20258;-82
2021/09/18 04:31:13;;;;;;;1.80;1.00;;;;;;;11.46;83.50;100864.91;5054084;28;20210;-82
2021/09/18 04:33:40;;;;;;;2.90;1.50;;;;;;;11.46;83.44;100864.91;5053965;28;20706;-82
2021/09/18 04:36:07;;;;;;;2.30;1.20;;;;;;;11.46;83.45;100867.56;5054762;28;20299;-82
2021/09/18 04:38:33;;;;;;;3.60;1.30;;;;;;;11.47;83.77;100871.91;5054830;28;20233;-82
2021/09/18 04:41:00;;;;;;;4.63;1.57;;;;;;;11.49;83.68;100875.34;5055892;28;20292;-83
2021/09/18 04:43:27;;;;;;;1.90;1.70;;;;;;;11.50;83.80;100874.38;5055267;28;20290;-82
2021/09/18 04:45:54;;;;;;;3.97;1.57;;;;;;;11.52;83.74;100871.63;5055263;28;20224;-83
2021/09/18 04:48:21;;;;;;;3.77;1.47;;;;;;;11.53;84.00;100868.00;5055259;28;20274;-83
2021/09/18 04:50:48;;;;;;;2.43;1.30;;;;;;;11.54;84.10;100867.91;5054758;28;20213;-84
2021/09/18 04:53:15;;;;;;;3.67;1.70;;;;;;;11.56;84.15;100874.00;5041840;28;20235;-82
2021/09/18 04:55:42;;;;;;;4.00;1.80;;;;;;;11.58;83.87;100877.44;5034882;28;20237;-81
2021/09/18 04:58:08;;;;;;;3.10;1.20;;;;;;;11.59;83.88;100871.16;5034134;28;20210;-81
2021/09/18 05:00:35;;;;;;;2.20;1.30;;;;;;;11.61;84.06;100879.91;5049087;28;20313;-82
2021/09/18 05:03:02;;;;;;;3.93;1.20;;;;;;;11.62;83.79;100873.63;5037716;28;20766;-81
2021/09/18 05:05:30;;;;;;;2.53;1.13;;;;;;;11.63;84.07;100872.69;5051225;28;20602;-81
2021/09/18 05:07:57;;;;;;;2.97;1.03;;;;;;;11.66;83.88;100876.94;5043650;28;20222;-81
2021/09/18 05:10:23;;;;;;;2.50;1.10;;;;;;;11.68;83.68;100878.53;5040838;28;20544;-83
2021/09/18 05:12:50;;;;;;;2.37;1.13;;;;;;;11.70;83.85;100875.78;5051042;28;20223;-82
2021/09/18 05:15:16;;;;;;;1.90;1.23;;;;;;;11.72;83.81;100879.22;5044897;28;20211;-82
2021/09/18 05:17:44;;;;;;;2.50;1.20;;;;;;;11.73;83.92;100876.44;5044537;28;20207;-81
2021/09/18 05:20:11;;;;;;;3.10;1.10;;;;;;;11.74;83.73;100883.50;5053162;28;20203;-84
2021/09/18 05:22:39;;;;;;;2.27;1.07;;;;;;;11.78;83.50;100894.88;5044566;28;20228;-84
2021/09/18 05:25:07;;;;;;;2.07;1.10;;;;;;;11.80;83.30;100899.16;5053217;28;20237;-83
2021/09/18 05:27:33;;;;;;;3.97;1.30;;;;;;;11.81;83.36;100895.53;5053270;28;20695;-83
2021/09/18 05:30:00;;;;;;;2.67;1.00;;;;;;;11.83;83.22;100898.94;5052837;28;20216;-81
2021/09/18 05:32:26;;;;;;;2.10;1.10;;;;;;;11.83;83.12;100898.06;5041434;28;20246;-83
2021/09/18 05:34:53;;;;;;;2.13;1.10;;;;;;;11.83;82.96;100909.59;5042149;28;20221;-84
2021/09/18 05:37:20;;;;;;;1.70;1.60;;;;;;;11.86;83.00;100900.56;5035863;28;20299;-83
2021/09/18 05:39:47;;;;;;;3.17;1.40;;;;;;;11.88;82.87;100901.31;5053886;28;20598;-80
2021/09/18 05:42:15;;;;;;;2.97;1.30;;;;;;;11.90;82.69;100902.06;5045579;28;20219;-82
2021/09/18 05:44:41;;;;;;;2.23;1.00;;;;;;;11.92;82.21;100913.50;5040988;28;20253;-82
2021/09/18 05:47:08;;;;;;;1.97;1.40;;;;;;;11.95;82.35;100912.47;5043701;28;20289;-81
2021/09/18 05:49:35;;;;;;;1.80;1.20;;;;;;;11.96;82.42;100909.69;5041599;28;20289;-82
2021/09/18 05:52:01;;;;;;;1.50;1.07;;;;;;;11.98;82.43;100912.28;5044094;28;20240;-81
2021/09/18 05:54:28;;;;;;;3.07;1.20;;;;;;;12.01;81.97;100914.72;5051244;28;20225;-82
2021/09/18 05:56:56;;;;;;;2.67;1.13;;;;;;;12.04;82.15;100919.84;5052554;28;20293;-82
2021/09/18 05:59:23;;;;;;;1.37;1.27;;;;;;;12.04;81.51;100917.19;5041731;28;20202;-81
2021/09/18 06:01:50;;;;;;;2.20;0.97;;;;;;;12.06;81.82;100918.81;5048100;28;20787;-81
2021/09/18 06:04:16;;;;;;;2.57;1.20;;;;;;;12.10;82.03;100930.16;5059552;28;20296;-82
2021/09/18 06:06:44;;;;;;;3.27;1.10;;;;;;;12.11;81.80;100921.19;5051790;28;20247;-83
2021/09/18 06:09:11;;;;;;;1.67;1.30;;;;;;;12.13;81.63;100921.94;5052385;28;20292;-83
2021/09/18 06:11:37;;;;;;;2.30;1.57;;;;;;;12.15;81.47;100920.03;5054136;28;20257;-83
2021/09/18 06:14:05;;;;;;;2.47;1.50;;;;;;;12.17;81.30;100918.13;5044944;28;20309;-83
2021/09/18 06:16:32;;;;;;;3.23;1.20;;;;;;;12.19;81.26;100926.84;5048366;28;20202;-84
2021/09/18 06:18:59;;;;;;;5.10;1.97;;;;;;;12.22;81.08;100912.47;5046327;28;20214;-84
2021/09/18 06:21:25;;;;;;;3.63;1.30;;;;;;;12.26;81.12;100919.31;5049836;28;20240;-83
2021/09/18 06:23:52;;;;;;;1.20;1.10;;;;;;;12.29;81.20;100916.44;5046900;28;20270;-82
2021/09/18 06:26:19;;;;;;;4.40;1.30;;;;;;;12.32;81.14;100921.59;5047955;28;20289;-83
2021/09/18 06:28:45;;;;;;;3.07;1.33;;;;;;;12.35;80.88;100922.25;5050686;28;20648;-82
2021/09/18 06:31:13;;;;;;;2.07;1.20;;;;;;;12.39;80.81;100918.38;5051315;28;20233;-82
2021/09/18 06:33:40;;;;;;;2.43;1.47;;;;;;;12.44;80.52;100918.94;5044657;28;20321;-83
2021/09/18 06:36:06;;;;;;;3.17;1.67;;;;;;;12.49;80.44;100930.19;5049079;28;20299;-82
2021/09/18 06:38:33;;;;;;;2.63;1.60;;;;;;;12.52;80.46;100921.97;5046238;28;20286;-82
2021/09/18 06:41:00;;;;;;;2.53;1.30;;;;;;;12.58;80.62;100933.19;5049353;28;20200;-82
2021/09/18 06:43:28;;;;;;;1.80;1.33;;;;;;;12.62;80.48;100930.22;5046645;28;20277;-83
2021/09/18 06:45:55;;;;;;;3.77;1.57;;;;;;;12.66;80.65;100930.88;5044496;28;20206;-82
2021/09/18 06:51:08;;;;;;;1.87;1.43;;;;;;;12.74;80.32;100937.41;5054971;28;20239;-84
2021/09/18 06:53:34;;;;;;;4.07;1.60;;;;;;;12.77;80.47;100939.00;5053686;28;20223;-83
2021/09/18 06:56:01;;;;;;;2.67;1.67;;;;;;;12.80;80.35;100941.47;5054730;28;20292;-83
2021/09/18 06:58:28;;;;;;;2.10;1.60;;;;;;;12.84;80.15;100948.34;5044433;28;20270;-82
2021/09/18 07:00:54;;;;;;;3.53;2.37;;;;;;;12.88;80.41;100947.19;5051605;28;20202;-83
2021/09/18 07:03:23;;;;;;;3.20;1.80;;;;;;;12.92;80.31;100950.47;5046202;28;20225;-83
2021/09/18 07:05:51;;;;;;;3.20;2.17;;;;;;;12.96;80.03;100951.97;5050886;28;20289;-82
2021/09/18 07:08:18;;;;;;;2.40;2.20;;;;;;;12.98;79.85;100948.25;5049852;28;20289;-81
2021/09/18 07:10:45;;;;;;;3.60;2.47;;;;;;;13.01;79.89;100950.72;5047563;28;20206;-82
2021/09/18 07:13:11;;;;;;;4.00;2.20;;;;;;;13.05;79.93;100954.91;5049155;28;20228;-82
2021/09/18 07:15:38;;;;;;;2.43;2.10;;;;;;;13.08;80.30;100957.34;5042041;28;20600;-82
2021/09/18 07:18:04;;;;;;;3.37;2.67;;;;;;;13.12;80.32;100953.50;5045371;28;20210;-81
2021/09/18 07:20:31;;;;;;;3.37;2.67;;;;;;;13.15;80.05;100950.66;5046131;28;20210;-81
2021/09/18 07:23:00;;;;;;;3.20;2.77;;;;;;;13.19;79.95;100960.19;5044187;28;20234;-81
2021/09/18 07:25:27;;;;;;;3.50;2.70;;;;;;;13.24;79.82;100953.66;5044048;28;20646;-80
2021/09/18 07:27:54;;;;;;;2.50;2.30;;;;;;;13.27;80.31;100964.13;5049268;28;20220;-79
2021/09/18 07:30:21;;;;;;;2.80;1.83;;;;;;;13.29;80.08;100960.38;5050062;28;20210;-82
2021/09/18 07:32:48;;;;;;;3.03;2.43;;;;;;;13.31;79.79;100955.78;5047453;28;20297;-80
2021/09/18 07:35:14;;;;;;;3.27;2.30;;;;;;;13.36;79.60;100961.69;5043530;28;20223;-80
2021/09/18 07:37:41;;;;;;;5.00;2.10;;;;;;;13.40;79.86;100963.19;5049293;28;20747;-82
2021/09/18 07:40:12;;;;;;;2.80;2.20;;;;;;;13.46;79.53;100969.91;5050213;28;20234;-82
2021/09/18 07:42:39;;;;;;;2.40;2.00;;;;;;;13.48;79.32;100963.47;5050763;28;20312;-81
2021/09/18 07:45:08;;;;;;;3.30;1.93;;;;;;;13.53;79.33;100971.19;5045514;28;20961;-81
2021/09/18 07:47:35;;;;;;;3.50;2.10;;;;;;;13.57;79.65;100970.00;5055620;28;20206;-81
2021/09/18 07:50:01;;;;;;;2.70;2.00;;;;;;;13.62;79.38;100972.34;5047752;28;20230;-80
2021/09/18 07:52:28;;;;;;;2.77;1.80;;;;;;;13.65;79.59;100975.66;5052523;28;20249;-82
2021/09/18 07:54:54;;;;;;;1.93;1.73;;;;;;;13.71;79.39;100977.91;5043581;28;20231;-82
2021/09/18 07:57:22;;;;;;;2.03;1.50;;;;;;;13.77;79.13;100985.53;5050152;28;20220;-81
2021/09/18 07:59:49;;;;;;;2.90;2.00;;;;;;;13.82;79.25;100979.81;5048205;28;20205;-82
2021/09/18 08:02:16;;;;;;;2.47;1.60;;;;;;;13.85;79.02;100985.81;5053576;28;20253;-82
2021/09/18 08:04:42;;;;;;;2.10;1.57;;;;;;;13.87;79.26;100981.22;5047821;28;20238;-82
2021/09/18 08:07:09;;;;;;;4.30;1.90;;;;;;;13.92;79.22;100980.03;5048143;28;20249;-81
2021/09/18 08:09:36;;;;;;;4.57;2.23;;;;;;;13.95;78.98;100972.63;5046311;28;20237;-82
2021/09/18 08:12:03;;;;;;;4.10;2.07;;;;;;;14.00;78.96;100983.84;5049852;28;20313;-81
2021/09/18 08:14:31;;;;;;;3.40;2.17;;;;;;;14.04;79.03;100981.81;5057143;28;20225;-81
2021/09/18 08:16:57;;;;;;;4.70;2.10;;;;;;;14.10;79.16;100986.72;5051771;28;20251;-80
2021/09/18 08:19:24;;;;;;;2.87;2.37;;;;;;;14.15;78.83;100985.41;5045464;28;20253;-81
2021/09/18 08:21:52;;;;;;;5.63;3.60;;;;;;;14.18;78.39;100985.19;5047931;28;20221;-81
2021/09/18 08:24:19;;;;;;;4.80;3.30;;;;;;;14.23;78.35;100993.75;5049873;28;20260;-82
2021/09/18 08:26:46;;;;;;;4.33;3.33;;;;;;;14.27;78.57;100988.19;5047956;28;20211;-80
2021/09/18 08:29:13;;;;;;;5.13;3.67;;;;;;;14.31;78.57;100987.00;5049858;28;20288;-81
2021/09/18 08:31:41;;;;;;;6.20;3.80;;;;;;;14.38;78.35;101001.63;5042194;28;20225;-80
2021/09/18 08:34:08;;;;;;;4.00;3.60;;;;;;;14.42;78.49;101003.16;5044726;28;20269;-81
2021/09/18 08:36:34;;;;;;;6.43;3.60;;;;;;;14.45;78.72;101009.16;5041489;28;20247;-81
2021/09/18 08:39:01;;;;;;;6.13;3.30;;;;;;;14.48;78.58;101000.03;5047765;28;20703;-81
2021/09/18 08:41:29;;;;;;;4.43;3.40;;;;;;;14.53;78.48;101001.38;5047207;28;20675;-81
2021/09/18 08:43:56;;;;;;;4.57;3.43;;;;;;;14.58;78.87;100999.22;5043552;28;20292;-81
2021/09/18 08:46:25;;;;;;;4.87;3.30;;;;;;;14.59;78.66;100990.22;5048911;28;20269;-83
2021/09/18 08:48:54;;;;;;;4.73;4.00;;;;;;;14.65;78.69;100994.28;5049013;28;20245;-83
2021/09/18 08:51:21;;;;;;;5.30;3.67;;;;;;;14.69;79.00;100998.41;5047730;28;20274;-83
2021/09/18 08:53:48;;;;;;;6.83;3.80;;;;;;;14.74;79.03;100996.25;5044390;28;20267;-82
2021/09/18 08:56:16;;;;;;;5.93;3.60;;;;;;;14.81;79.15;100993.97;5075819;22;20324;-75
2021/09/18 08:58:43;;;;;;;5.60;3.30;;;;;;;14.89;79.29;100999.59;5065060;28;20841;-74
2021/09/18 09:01:13;;;;;;;4.50;4.03;;;;;;;14.96;79.81;101003.53;5065808;28;20291;-74
2021/09/18 09:03:40;;;;;;;3.87;3.27;;;;;;;15.02;79.60;101002.22;5055254;28;20202;-73
2021/09/18 09:06:11;;;;;;;6.47;3.70;;;;;;;15.10;79.62;101013.19;5059928;28;20205;-73
2021/09/18 09:08:39;;;;;;;4.30;3.23;;;;;;;15.12;79.07;101006.75;5064012;28;20193;-74
2021/09/18 09:11:19;;;;;;;4.77;3.30;;;;;;;15.15;78.92;101008.34;5069694;22;20237;-71
2021/09/18 09:13:57;;;;;;;5.67;3.40;;;;;;;15.18;78.48;101008.13;5049158;28;20209;-73
2021/09/18 09:16:24;;;;;;;6.53;3.77;;;;;;;15.19;78.11;101005.31;5042000;28;20316;-73
2021/09/18 09:18:50;;;;;;;6.73;3.63;;;;;;;15.21;78.14;101006.06;5045111;28;20293;-73
2021/09/18 09:21:20;;;;;;;6.03;3.40;;;;;;;15.27;78.03;101005.56;5046949;28;20224;-73
2021/09/18 09:24:05;;;;;;;5.10;3.63;;;;;;;15.34;78.13;101005.09;5041493;28;20213;-73
2021/09/18 09:26:32;;;;;;;5.13;4.03;;;;;;;15.38;77.93;101001.22;5046135;28;20217;-73
2021/09/18 09:28:59;;;;;;;4.73;3.93;;;;;;;15.43;77.89;100997.16;5049798;28;20301;-71
2021/09/18 09:31:28;;;;;;;5.87;4.40;;;;;;;15.52;78.24;100996.47;5044472;28;20681;-70
2021/09/18 09:34:04;;;;;;;5.33;4.50;;;;;;;15.59;78.09;100997.72;5047370;28;20202;-70
2021/09/18 09:36:37;;;;;;;5.07;3.97;;;;;;;15.68;77.98;101000.66;5044503;28;20222;-70
2021/09/18 09:39:06;;;;;;;4.47;3.80;;;;;;;15.76;77.54;100999.09;5044502;28;20211;-70
2021/09/18 09:41:36;;;;;;;6.43;4.07;;;;;;;15.85;77.41;101000.19;5050685;28;20324;-70
2021/09/18 09:44:09;;;;;;;5.23;4.10;;;;;;;15.93;77.08;100997.75;5045916;28;20580;-70
2021/09/18 09:46:35;;;;;;;4.77;4.00;;;;;;;16.03;76.94;100997.84;5046403;28;20228;-71
2021/09/18 09:49:04;;;;;;;4.83;4.00;;;;;;;16.12;76.53;101005.19;5047939;28;20671;-71
2021/09/18 09:51:33;;;;;;;5.43;3.90;;;;;;;16.18;75.96;101004.66;5044821;28;20229;-71
2021/09/18 09:54:19;;;;;;;6.50;4.47;;;;;;;16.22;75.73;100995.38;5041335;28;20581;-71
2021/09/18 09:56:46;;;;;;;5.07;3.73;;;;;;;16.30;76.04;100999.13;5044603;28;20218;-71
2021/09/18 09:59:26;;;;;;;5.30;4.03;;;;;;;16.41;76.01;101006.34;5043306;28;20213;-71
2021/09/18 10:01:53;;;;;;;5.07;2.93;;;;;;;16.51;75.61;101007.28;5047942;28;20203;-71
2021/09/18 10:04:20;;;;;;;4.33;3.60;;;;;;;16.58;75.42;101005.81;5043817;28;20881;-71
2021/09/18 10:06:49;;;;;;;5.10;3.07;;;;;;;16.68;75.06;101005.91;5048183;28;20210;-69
2021/09/18 10:09:17;;;;;;;4.07;2.67;;;;;;;16.77;74.98;101004.31;5043493;28;20281;-69
2021/09/18 10:11:44;;;;;;;4.33;3.10;;;;;;;16.84;74.56;101009.03;5048066;28;20772;-70
2021/09/18 10:14:16;;;;;;;4.23;3.07;;;;;;;16.88;73.36;101010.47;5049306;28;20203;-69
2021/09/18 10:16:42;;;;;;;4.43;3.47;;;;;;;16.93;73.41;101013.66;5043305;28;20236;-69
2021/09/18 10:19:10;;;;;;;4.40;3.80;;;;;;;16.97;73.36;101011.56;5042034;28;20219;-69
2021/09/18 10:24:22;;;;;;;4.13;3.13;;;;;;;17.12;73.13;101015.63;5043930;28;20726;-69
2021/09/18 10:27:14;;;;;;;4.10;3.57;;;;;;;17.20;72.22;101015.81;5041909;28;20209;-70
2021/09/18 10:29:40;;;;;;;3.93;3.20;;;;;;;17.23;72.17;101018.25;5036601;28;20228;-69
2021/09/18 10:32:07;;;;;;;5.73;3.30;;;;;;;17.32;71.86;101011.25;5044542;28;20686;-69
2021/09/18 10:34:34;;;;;;;3.93;3.20;;;;;;;17.37;71.51;101010.84;5038625;28;20221;-69
2021/09/18 10:37:00;;;;;;;3.40;3.10;;;;;;;17.44;70.85;101009.31;5039117;28;20204;-69
2021/09/18 10:39:28;;;;;;;5.07;3.60;;;;;;;17.48;70.79;101016.16;5043484;28;20234;-69
2021/09/18 10:41:57;;;;;;;4.43;3.30;;;;;;;17.53;71.00;101017.47;5047811;28;20207;-69
2021/09/18 10:44:26;;;;;;;5.63;3.17;;;;;;;17.61;70.95;101006.03;5042582;28;20236;-69
2021/09/18 10:46:54;;;;;;;3.53;2.80;;;;;;;17.71;70.58;101009.66;5042886;28;20199;-71
2021/09/18 10:49:41;;;;;;;3.10;2.80;;;;;;;17.76;70.24;101010.09;5043853;28;20672;-72
2021/09/18 10:52:28;;;;;;;3.57;3.07;;;;;;;17.83;70.16;101015.81;5040375;28;20289;-72
2021/09/18 10:55:15;;;;;;;3.47;3.17;;;;;;;17.91;69.51;101016.00;5044870;28;20229;-72
2021/09/18 10:58:05;;;;;;;3.87;3.27;;;;;;;17.96;69.18;101008.34;5044188;28;20289;-72
2021/09/18 11:00:44;;;;;;;3.20;2.83;;;;;;;18.00;69.35;101010.63;5041701;28;20237;-72
2021/09/18 11:03:11;;;;;;;3.77;3.03;;;;;;;18.05;69.14;101012.94;5039650;28;20202;-72
2021/09/18 11:05:46;;;;;;;3.43;3.13;;;;;;;18.11;69.18;101014.22;5044959;28;20198;-72
2021/09/18 11:08:38;;;;;;;5.17;3.30;;;;;;;18.17;68.79;101011.84;5045435;28;20209;-72
2021/09/18 11:11:13;;;;;;;4.70;3.00;;;;;;;18.21;68.69;101021.34;5025854;28;20332;-72
2021/09/18 11:13:42;;;;;;;3.40;3.10;;;;;;;18.30;68.67;101012.44;5045618;28;20218;-73
2021/09/18 11:16:19;;;;;;;3.10;2.80;;;;;;;18.36;68.48;101014.59;5052044;28;20317;-72
2021/09/18 11:18:52;;;;;;;5.33;3.90;;;;;;;18.45;68.34;101004.78;5044877;28;20593;-72
2021/09/18 11:21:22;;;;;;;3.40;3.10;;;;;;;18.51;67.86;101020.44;5036768;28;20234;-72
2021/09/18 11:23:52;;;;;;;4.50;3.67;;;;;;;18.54;67.34;101017.44;5043921;28;20205;-73
2021/09/18 11:26:43;;;;;;;3.43;2.97;;;;;;;18.55;66.90;101023.69;5040654;28;20209;-73
2021/09/18 11:29:15;;;;;;;3.40;3.10;;;;;;;18.59;66.81;101023.31;5041596;28;20208;-72
2021/09/18 11:31:54;;;;;;;5.00;4.47;;;;;;;18.63;66.18;101019.34;5051882;28;20680;-72
2021/09/18 11:34:24;;;;;;;4.80;3.93;;;;;;;18.63;66.02;101027.44;5040290;28;20301;-72
2021/09/18 11:36:51;;;;;;;5.50;5.00;;;;;;;18.66;66.15;101013.66;5044630;28;20223;-73